Time;durP1;ratioP1;P1;durP2;ratioP2;P2;SDS_P1;SDS_P2;PMS_P1;PMS_P2;Temp;Humidity;BMP_temperature;BMP_pressure;BME280_temperature;BME280_humidity;BME280_pressure;Samples;Min_cycle;Max_cycle;Signal;HPM_P1;HPM_P2
2023/06/13 00:00:33;;;;;;;7.63;3.08;;;20.10;40.40;;;;;;4973928;28;20051;-68
2023/06/13 00:03:00;;;;;;;5.70;3.00;;;20.10;40.50;;;;;;4974564;28;20118;-69
2023/06/13 00:05:26;;;;;;;5.20;3.50;;;20.10;40.60;;;;;;4974559;28;20046;-68
2023/06/13 00:07:52;;;;;;;5.18;3.13;;;20.00;40.80;;;;;;4974245;28;20070;-68
2023/06/13 00:10:17;;;;;;;4.90;2.88;;;20.00;40.80;;;;;;4973655;28;20472;-68
2023/06/13 00:12:49;;;;;;;7.70;3.53;;;20.00;41.00;;;;;;4974408;28;20046;-68
2023/06/13 00:15:15;;;;;;;5.60;3.33;;;20.00;41.20;;;;;;4974474;28;20074;-68
2023/06/13 00:17:41;;;;;;;7.38;3.20;;;19.80;41.40;;;;;;4973685;28;20062;-68
2023/06/13 00:20:08;;;;;;;14.20;4.07;;;19.80;41.70;;;;;;4973387;28;20042;-68
2023/06/13 00:22:34;;;;;;;6.95;3.00;;;19.80;41.70;;;;;;4973579;28;20525;-68
2023/06/13 00:25:00;;;;;;;6.93;3.53;;;19.80;41.80;;;;;;4972686;28;20046;-67
2023/06/13 00:27:26;;;;;;;5.57;3.00;;;19.70;41.90;;;;;;4973846;28;20039;-67
2023/06/13 00:29:52;;;;;;;7.68;2.63;;;19.70;41.90;;;;;;4973371;28;20035;-68
2023/06/13 00:32:17;;;;;;;4.63;3.15;;;19.60;42.20;;;;;;4973947;28;20536;-67
2023/06/13 00:34:44;;;;;;;4.40;3.22;;;19.70;42.30;;;;;;4973840;28;20050;-67
2023/06/13 00:37:09;;;;;;;6.50;2.97;;;19.60;42.50;;;;;;4973387;28;20069;-67
2023/06/13 00:39:39;;;;;;;9.10;3.70;;;19.60;42.60;;;;;;4973277;28;20043;-68
2023/06/13 00:42:06;;;;;;;7.80;3.55;;;19.50;42.70;;;;;;4973748;28;20043;-68
2023/06/13 00:44:32;;;;;;;5.60;3.30;;;19.50;43.00;;;;;;4973548;28;20584;-68
2023/06/13 00:47:00;;;;;;;5.80;3.55;;;19.40;43.10;;;;;;4973259;28;20419;-68
2023/06/13 00:49:26;;;;;;;5.38;3.67;;;19.40;43.90;;;;;;4973086;28;20038;-68
2023/06/13 00:51:53;;;;;;;7.38;3.38;;;19.40;43.40;;;;;;4973390;28;20057;-68
2023/06/13 00:54:19;;;;;;;7.78;3.80;;;19.40;43.70;;;;;;4973631;28;20096;-68
2023/06/13 00:56:45;;;;;;;7.63;3.80;;;19.30;43.80;;;;;;4973101;28;20177;-68
2023/06/13 00:59:13;;;;;;;8.25;4.32;;;19.20;43.90;;;;;;4973016;28;20053;-67
2023/06/13 01:01:40;;;;;;;7.35;3.25;;;19.20;44.20;;;;;;4973350;28;20043;-68
2023/06/13 01:04:07;;;;;;;5.50;3.72;;;19.20;44.30;;;;;;4973300;28;20131;-68
2023/06/13 01:06:38;;;;;;;6.03;3.65;;;19.10;44.50;;;;;;4972887;28;20057;-67
2023/06/13 01:09:05;;;;;;;7.97;3.88;;;19.10;44.80;;;;;;4971502;28;20507;-68
2023/06/13 01:11:46;;;;;;;5.68;3.97;;;19.00;44.80;;;;;;4973391;28;20049;-68
2023/06/13 01:14:31;;;;;;;7.50;3.65;;;19.10;45.10;;;;;;4973105;28;20049;-68
2023/06/13 01:17:04;;;;;;;5.93;3.97;;;19.00;45.70;;;;;;4972774;28;20126;-68
2023/06/13 01:19:37;;;;;;;;;;;19.00;45.20;;;;;;4973271;28;20114;-68
2023/06/13 01:22:08;;;;;;;5.87;3.67;;;18.90;45.60;;;;;;4972992;28;20374;-68
2023/06/13 01:24:43;;;;;;;7.38;3.70;;;18.80;45.50;;;;;;4972788;28;20039;-68
2023/06/13 01:27:12;;;;;;;6.70;3.90;;;18.90;45.60;;;;;;4972339;28;20039;-69
2023/06/13 01:29:40;;;;;;;5.45;4.20;;;18.90;45.60;;;;;;4972019;28;20435;-69
2023/06/13 01:32:07;;;;;;;5.10;4.10;;;18.80;45.70;;;;;;4971791;28;20533;-69
2023/06/13 01:34:33;;;;;;;4.53;3.13;;;18.80;45.80;;;;;;4971905;28;20522;-69
2023/06/13 01:36:59;;;;;;;7.10;3.60;;;18.80;45.90;;;;;;4972173;28;20047;-69
2023/06/13 01:39:25;;;;;;;7.43;3.70;;;18.80;46.00;;;;;;4972132;28;20049;-70
2023/06/13 01:41:51;;;;;;;5.40;3.60;;;18.80;46.20;;;;;;4972673;28;20053;-69
2023/06/13 01:44:18;;;;;;;7.78;4.35;;;18.70;46.30;;;;;;4972697;28;20482;-70
2023/06/13 01:46:53;;;;;;;5.75;3.97;;;18.70;46.30;;;;;;4973761;28;20520;-69
2023/06/13 01:49:49;;;;;;;5.78;3.75;;;18.70;46.40;;;;;;4978804;28;20042;-70
2023/06/13 01:52:23;;;;;;;16.23;5.70;;;18.70;46.70;;;;;;4979155;28;20088;-70
2023/06/13 01:54:56;;;;;;;6.10;3.83;;;18.60;46.90;;;;;;4979363;28;20050;-70
2023/06/13 01:57:24;;;;;;;;;;;18.60;46.90;;;;;;4978913;28;20515;-69
2023/06/13 01:59:55;;;;;;;7.40;4.10;;;18.50;47.10;;;;;;4978975;28;19918;-70
2023/06/13 02:02:21;;;;;;;7.15;4.20;;;18.50;47.10;;;;;;4977863;28;20451;-70
2023/06/13 02:04:49;;;;;;;7.57;3.92;;;18.50;47.20;;;;;;4978900;28;20043;-69
2023/06/13 02:07:15;;;;;;;8.30;4.10;;;18.60;47.30;;;;;;4978730;28;20042;-70
2023/06/13 02:09:41;;;;;;;7.47;4.78;;;18.60;47.40;;;;;;4978528;28;20045;-70
2023/06/13 02:12:10;;;;;;;6.07;4.43;;;18.50;47.50;;;;;;4979125;28;20042;-69
2023/06/13 02:14:36;;;;;;;8.93;4.68;;;18.50;47.90;;;;;;4977693;28;20050;-69
2023/06/13 02:17:02;;;;;;;6.03;3.90;;;18.40;48.20;;;;;;4978736;28;20069;-69
2023/06/13 02:19:29;;;;;;;6.80;4.32;;;18.30;48.60;;;;;;4961207;28;20174;-70
2023/06/13 02:21:55;;;;;;;7.15;4.35;;;18.30;49.00;;;;;;4979038;28;20054;-70
2023/06/13 02:24:21;;;;;;;7.93;4.53;;;18.30;49.40;;;;;;4979017;28;20039;-70
2023/06/13 02:26:47;;;;;;;5.97;4.22;;;18.30;50.00;;;;;;4978587;28;20113;-70
2023/06/13 02:29:13;;;;;;;5.43;4.07;;;18.20;50.90;;;;;;4978013;28;20035;-70
2023/06/13 02:31:41;;;;;;;4.57;3.67;;;18.10;51.80;;;;;;4978616;28;20046;-69
2023/06/13 02:34:07;;;;;;;10.80;4.85;;;18.00;52.90;;;;;;4977576;28;20043;-69
2023/06/13 02:36:33;;;;;;;7.43;4.43;;;17.90;54.10;;;;;;4978284;28;20418;-69
2023/06/13 02:39:01;;;;;;;6.50;3.75;;;17.80;54.70;;;;;;4978428;28;20094;-69
2023/06/13 02:41:26;;;;;;;6.45;3.92;;;17.80;55.70;;;;;;4978814;28;20106;-70
2023/06/13 02:43:52;;;;;;;5.57;3.78;;;17.70;56.40;;;;;;4978688;28;20043;-70
2023/06/13 02:46:17;;;;;;;7.60;3.55;;;17.60;57.20;;;;;;4977993;28;20038;-71
2023/06/13 02:48:43;;;;;;;9.45;4.50;;;17.60;58.40;;;;;;4977196;28;20042;-69
2023/06/13 02:51:09;;;;;;;5.10;3.85;;;17.50;59.30;;;;;;4978623;28;20121;-69
2023/06/13 02:53:35;;;;;;;6.65;3.88;;;17.40;59.90;;;;;;4978694;28;20177;-69
2023/06/13 02:56:01;;;;;;;8.88;4.80;;;17.30;60.80;;;;;;4978755;28;20085;-69
2023/06/13 02:58:26;;;;;;;7.00;4.10;;;17.20;61.90;;;;;;4976162;28;20066;-69
2023/06/13 03:00:52;;;;;;;7.18;4.57;;;17.20;62.70;;;;;;4974584;28;20074;-70
2023/06/13 03:03:18;;;;;;;8.98;4.03;;;17.20;63.80;;;;;;4975272;28;20035;-71
2023/06/13 03:05:49;;;;;;;6.45;4.53;;;17.10;63.90;;;;;;4975455;28;20035;-69
2023/06/13 03:08:18;;;;;;;10.50;5.00;;;17.10;64.40;;;;;;4975169;28;20045;-70
2023/06/13 03:10:45;;;;;;;6.82;3.92;;;17.00;64.70;;;;;;4974913;28;20093;-70
2023/06/13 03:13:11;;;;;;;9.55;4.68;;;17.10;65.70;;;;;;4957811;28;20525;-70
2023/06/13 03:15:36;;;;;;;7.88;4.55;;;17.00;65.50;;;;;;4975125;28;20053;-69
2023/06/13 03:18:03;;;;;;;7.40;4.18;;;17.00;65.60;;;;;;4975094;28;20034;-70
2023/06/13 03:20:30;;;;;;;8.20;4.53;;;16.90;66.20;;;;;;4973714;28;20062;-70
2023/06/13 03:22:55;;;;;;;8.70;4.20;;;16.90;66.70;;;;;;4973796;28;20125;-69
2023/06/13 03:25:21;;;;;;;7.57;4.50;;;16.90;67.10;;;;;;4975190;28;20117;-69
2023/06/13 03:27:47;;;;;;;9.27;5.03;;;16.90;67.20;;;;;;4974717;28;20041;-69
2023/06/13 03:30:12;;;;;;;9.48;5.47;;;17.00;67.30;;;;;;4974472;28;20039;-69
2023/06/13 03:32:38;;;;;;;7.40;4.22;;;16.90;67.20;;;;;;4975021;28;20050;-70
2023/06/13 03:35:04;;;;;;;8.75;4.75;;;16.90;67.00;;;;;;4975051;28;20042;-69
2023/06/13 03:37:29;;;;;;;9.43;4.55;;;16.90;67.00;;;;;;4974858;28;20043;-69
2023/06/13 03:39:55;;;;;;;7.10;4.15;;;16.90;67.00;;;;;;4974479;28;20042;-69
2023/06/13 03:42:20;;;;;;;7.97;4.13;;;16.80;67.20;;;;;;4974726;28;20519;-70
2023/06/13 03:44:49;;;;;;;6.63;4.43;;;16.80;67.20;;;;;;4974842;28;20503;-69
2023/06/13 03:47:15;;;;;;;8.75;4.35;;;16.70;67.60;;;;;;4974259;28;20045;-69
2023/06/13 03:49:41;;;;;;;7.85;4.90;;;16.70;67.40;;;;;;4974366;28;20047;-70
2023/06/13 03:52:07;;;;;;;9.27;4.57;;;16.70;67.40;;;;;;4974721;28;20481;-70
2023/06/13 03:54:33;;;;;;;8.85;4.40;;;16.70;67.20;;;;;;4974699;28;20098;-69
2023/06/13 03:56:59;;;;;;;6.82;4.43;;;16.70;66.90;;;;;;4974665;28;20065;-69
2023/06/13 03:59:24;;;;;;;7.80;4.38;;;16.80;66.60;;;;;;4973773;28;20531;-69
2023/06/13 04:01:50;;;;;;;12.57;5.25;;;16.70;66.40;;;;;;4974617;28;20233;-69
2023/06/13 04:04:15;;;;;;;7.60;3.88;;;16.70;66.20;;;;;;4974535;28;20089;-70
2023/06/13 04:06:47;;;;;;;7.35;4.18;;;16.70;66.20;;;;;;4974056;28;20038;-69
2023/06/13 04:09:13;;;;;;;5.32;3.95;;;16.80;66.30;;;;;;4973776;28;20376;-70
2023/06/13 04:11:38;;;;;;;8.77;4.85;;;16.70;66.10;;;;;;4974000;28;20050;-69
2023/06/13 04:14:04;;;;;;;5.97;3.75;;;16.70;66.10;;;;;;4974147;28;20046;-69
2023/06/13 04:16:30;;;;;;;6.50;4.10;;;16.70;65.70;;;;;;4973355;28;20479;-69
2023/06/13 04:18:55;;;;;;;7.15;3.80;;;16.70;65.40;;;;;;4973656;28;20042;-70
2023/06/13 04:21:24;;;;;;;6.43;4.18;;;16.70;65.50;;;;;;4973991;28;20051;-70
2023/06/13 04:23:50;;;;;;;13.20;4.72;;;16.70;65.80;;;;;;4972862;28;20034;-69
2023/06/13 04:26:18;;;;;;;7.95;3.97;;;16.80;65.20;;;;;;4973310;28;20038;-70
2023/06/13 04:28:45;;;;;;;5.15;3.72;;;16.80;64.90;;;;;;4973365;28;20588;-70
2023/06/13 04:31:12;;;;;;;5.45;4.07;;;16.80;64.80;;;;;;4973791;28;20737;-70
2023/06/13 04:33:44;;;;;;;7.18;4.30;;;16.90;63.90;;;;;;4973984;28;20122;-69
2023/06/13 04:36:13;;;;;;;7.18;4.40;;;16.80;63.40;;;;;;4973924;28;20039;-70
2023/06/13 04:38:39;;;;;;;5.20;3.70;;;16.90;63.10;;;;;;4973493;28;20042;-70
2023/06/13 04:41:10;;;;;;;5.75;4.00;;;17.00;62.40;;;;;;4973217;28;20093;-70
2023/06/13 04:43:38;;;;;;;7.82;4.47;;;17.10;61.80;;;;;;4973746;28;20038;-70
2023/06/13 04:46:04;;;;;;;4.43;3.92;;;17.10;61.10;;;;;;4973722;28;20049;-69
2023/06/13 04:48:30;;;;;;;8.35;4.25;;;17.30;60.00;;;;;;4972044;28;20035;-70
2023/06/13 04:50:59;;;;;;;5.93;4.18;;;17.40;59.50;;;;;;4973177;28;20066;-69
2023/06/13 04:53:28;;;;;;;9.40;4.30;;;17.60;58.50;;;;;;4973314;28;20538;-69
2023/06/13 04:55:55;;;;;;;7.53;3.55;;;17.70;57.80;;;;;;4972090;28;20051;-69
2023/06/13 04:58:23;;;;;;;6.07;4.03;;;17.80;57.30;;;;;;4973136;28;20450;-70
2023/06/13 05:00:52;;;;;;;7.68;4.22;;;18.00;56.40;;;;;;4971501;28;20039;-69
2023/06/13 05:03:19;;;;;;;9.30;4.47;;;18.00;55.80;;;;;;4973115;28;20046;-70
2023/06/13 05:05:46;;;;;;;6.15;3.90;;;18.20;55.50;;;;;;4973223;28;20039;-70
2023/06/13 05:08:15;;;;;;;5.65;4.00;;;18.30;55.00;;;;;;4972698;28;20041;-69
2023/06/13 05:10:43;;;;;;;6.40;3.47;;;18.40;54.40;;;;;;4972959;28;20101;-69
2023/06/13 05:13:10;;;;;;;5.55;3.40;;;18.70;54.00;;;;;;4972163;28;20074;-69
2023/06/13 05:15:36;;;;;;;4.35;2.90;;;18.80;53.50;;;;;;4972979;28;20518;-69
2023/06/13 05:18:06;;;;;;;6.15;3.60;;;19.10;53.30;;;;;;4971644;28;20038;-70
2023/06/13 05:20:35;;;;;;;5.15;3.63;;;19.20;51.50;;;;;;4972471;28;20038;-69
2023/06/13 05:23:01;;;;;;;6.20;3.33;;;19.40;50.80;;;;;;4972482;28;20474;-69
2023/06/13 05:25:27;;;;;;;4.82;3.25;;;19.50;48.60;;;;;;4973180;28;20035;-69
2023/06/13 05:27:53;;;;;;;4.15;3.25;;;19.70;47.60;;;;;;4972653;28;20051;-69
2023/06/13 05:30:20;;;;;;;10.55;3.55;;;19.70;47.10;;;;;;4972370;28;20074;-67
2023/06/13 05:32:46;;;;;;;5.55;3.85;;;19.70;46.40;;;;;;4972870;28;20042;-68
2023/06/13 05:35:12;;;;;;;6.97;3.20;;;19.90;46.00;;;;;;4972771;28;20046;-68
2023/06/13 05:37:37;;;;;;;4.70;3.13;;;20.00;45.20;;;;;;4972828;28;20444;-68
2023/06/13 05:40:05;;;;;;;4.82;2.92;;;20.10;44.30;;;;;;4972301;28;20118;-67
2023/06/13 05:42:31;;;;;;;6.95;3.47;;;20.30;44.60;;;;;;4972866;28;20047;-68
2023/06/13 05:44:58;;;;;;;6.32;3.47;;;20.50;43.40;;;;;;4972703;28;20049;-67
2023/06/13 05:47:23;;;;;;;9.00;2.88;;;20.80;43.10;;;;;;4971116;28;20030;-67
2023/06/13 05:49:49;;;;;;;6.15;3.10;;;20.80;42.70;;;;;;4971952;28;20122;-67
2023/06/13 05:52:14;;;;;;;13.13;3.33;;;21.00;42.20;;;;;;4972937;28;20042;-67
2023/06/13 05:54:40;;;;;;;4.65;3.10;;;21.00;42.00;;;;;;4972815;28;20132;-67
2023/06/13 05:57:05;;;;;;;4.75;2.88;;;21.10;42.00;;;;;;4972339;28;20047;-67
2023/06/13 05:59:31;;;;;;;6.80;3.55;;;21.30;42.20;;;;;;4972142;28;20047;-67
2023/06/13 06:01:57;;;;;;;8.38;3.13;;;21.40;41.90;;;;;;4973779;28;20135;-67
2023/06/13 06:04:22;;;;;;;4.72;3.17;;;21.40;41.70;;;;;;4991654;28;20039;-66
2023/06/13 06:06:48;;;;;;;9.32;3.70;;;21.60;41.80;;;;;;4991710;28;20541;-67
2023/06/13 06:09:14;;;;;;;9.65;3.00;;;21.60;41.50;;;;;;4990189;28;20117;-67
2023/06/13 06:11:39;;;;;;;11.18;3.58;;;21.60;40.70;;;;;;4991988;28;20088;-67
2023/06/13 06:14:05;;;;;;;5.10;2.83;;;21.60;40.40;;;;;;4991984;28;20126;-66
2023/06/13 06:16:31;;;;;;;5.28;3.00;;;21.80;40.20;;;;;;4991698;28;20050;-66
2023/06/13 06:18:56;;;;;;;5.13;3.05;;;22.10;40.10;;;;;;4991203;28;20037;-67
2023/06/13 06:21:22;;;;;;;5.47;3.17;;;22.30;39.60;;;;;;4991765;28;20114;-67
2023/06/13 06:23:47;;;;;;;4.68;2.70;;;22.30;39.60;;;;;;4992029;28;20038;-68
2023/06/13 06:26:13;;;;;;;5.90;2.95;;;22.60;39.60;;;;;;4991487;28;20038;-67
2023/06/13 06:28:39;;;;;;;4.65;2.55;;;22.90;39.20;;;;;;4991282;28;20177;-67
2023/06/13 06:31:05;;;;;;;4.03;2.92;;;23.10;38.50;;;;;;4991508;28;20053;-67
2023/06/13 06:33:31;;;;;;;4.57;2.85;;;23.10;38.40;;;;;;4993210;28;20054;-67
2023/06/13 06:35:57;;;;;;;7.07;3.05;;;23.20;37.30;;;;;;4995684;28;20128;-69
2023/06/13 06:38:23;;;;;;;4.97;2.65;;;23.20;37.00;;;;;;4995059;28;20125;-67
2023/06/13 06:40:48;;;;;;;5.57;3.00;;;23.30;36.80;;;;;;4994971;28;20045;-67
2023/06/13 06:43:14;;;;;;;3.90;2.67;;;23.40;36.50;;;;;;4995073;28;20402;-68
2023/06/13 06:45:39;;;;;;;6.18;3.00;;;23.40;35.80;;;;;;4993924;28;20121;-67
2023/06/13 06:48:05;;;;;;;4.93;2.72;;;23.70;35.80;;;;;;4991473;28;20070;-67
2023/06/13 06:50:31;;;;;;;5.35;2.60;;;23.70;35.80;;;;;;4990789;28;20038;-67
2023/06/13 06:52:56;;;;;;;5.97;2.65;;;23.70;35.00;;;;;;4995101;28;20034;-67
2023/06/13 06:55:22;;;;;;;4.20;2.65;;;24.00;34.50;;;;;;4995110;28;20038;-68
2023/06/13 06:57:47;;;;;;;5.65;3.20;;;24.00;33.40;;;;;;4994937;28;20114;-68
2023/06/13 07:00:14;;;;;;;6.65;3.15;;;23.90;33.20;;;;;;4987480;28;20465;-71
2023/06/13 07:02:43;;;;;;;5.18;2.40;;;24.30;33.30;;;;;;4988196;28;20042;-69
2023/06/13 07:05:09;;;;;;;6.35;3.40;;;24.30;32.30;;;;;;4989298;28;20035;-69
2023/06/13 07:07:35;;;;;;;7.20;2.72;;;24.50;32.60;;;;;;4993855;28;20046;-70
2023/06/13 07:10:01;;;;;;;5.07;3.03;;;24.50;31.70;;;;;;4994638;28;20439;-69
2023/06/13 07:12:27;;;;;;;4.75;2.72;;;24.60;31.50;;;;;;4993265;28;20038;-70
2023/06/13 07:14:53;;;;;;;5.50;2.35;;;24.60;30.50;;;;;;4986680;28;20103;-70
2023/06/13 07:17:19;;;;;;;4.15;2.33;;;24.50;29.70;;;;;;4978565;28;20047;-70
2023/06/13 07:19:45;;;;;;;4.85;2.40;;;24.50;29.40;;;;;;4974795;28;20073;-70
2023/06/13 07:22:10;;;;;;;7.25;2.47;;;24.50;28.90;;;;;;4975257;28;20085;-70
2023/06/13 07:24:36;;;;;;;3.25;1.80;;;24.60;28.70;;;;;;4975287;28;20491;-69
2023/06/13 07:27:01;;;;;;;3.63;2.55;;;24.80;29.10;;;;;;4973755;28;20530;-70
2023/06/13 07:29:27;;;;;;;4.15;2.40;;;24.80;28.80;;;;;;4974471;28;20034;-69
2023/06/13 07:31:53;;;;;;;3.92;2.15;;;24.90;28.70;;;;;;4974969;28;20054;-69
2023/06/13 07:34:20;;;;;;;5.10;2.38;;;25.10;28.30;;;;;;4974942;28;20531;-69
2023/06/13 07:36:45;;;;;;;4.60;2.28;;;25.10;27.90;;;;;;4974553;28;20123;-69
2023/06/13 07:39:12;;;;;;;3.00;1.92;;;25.20;27.50;;;;;;4974392;28;20053;-69
2023/06/13 07:41:38;;;;;;;3.15;2.13;;;25.40;27.70;;;;;;4974864;28;20090;-69
2023/06/13 07:44:05;;;;;;;3.45;2.00;;;25.60;27.60;;;;;;4974683;28;20035;-70
2023/06/13 07:46:30;;;;;;;5.93;2.22;;;25.40;27.40;;;;;;4973428;28;20491;-69
2023/06/13 07:48:56;;;;;;;4.00;2.60;;;25.60;28.00;;;;;;4973246;28;20102;-70
2023/06/13 07:51:22;;;;;;;5.72;2.47;;;26.00;28.30;;;;;;4974854;28;20499;-70
2023/06/13 07:53:47;;;;;;;2.55;1.92;;;26.30;28.60;;;;;;4974794;28;20054;-70
2023/06/13 07:56:13;;;;;;;3.92;2.67;;;26.50;28.10;;;;;;4974350;28;20426;-70
2023/06/13 07:58:39;;;;;;;9.43;2.70;;;26.50;27.80;;;;;;4974349;28;20414;-69
2023/06/13 08:01:04;;;;;;;6.30;2.47;;;26.60;27.80;;;;;;4974236;28;20117;-70
2023/06/13 08:03:30;;;;;;;5.00;2.53;;;26.70;27.70;;;;;;4973459;28;20038;-70
2023/06/13 08:05:56;;;;;;;6.72;2.80;;;26.60;27.80;;;;;;4974507;28;20126;-70
2023/06/13 08:08:21;;;;;;;4.40;2.20;;;26.50;27.50;;;;;;4974159;28;20515;-70
2023/06/13 08:10:47;;;;;;;4.38;2.40;;;26.70;28.10;;;;;;4974010;28;20069;-70
2023/06/13 08:13:13;;;;;;;6.82;2.58;;;26.70;27.90;;;;;;4974256;28;20046;-70
2023/06/13 08:15:38;;;;;;;3.10;2.53;;;26.80;28.00;;;;;;4974110;28;20034;-70
2023/06/13 08:18:04;;;;;;;6.75;2.75;;;26.60;27.30;;;;;;4973948;28;20514;-70
2023/06/13 08:20:30;;;;;;;5.03;3.05;;;26.60;27.40;;;;;;4973726;28;20384;-70
2023/06/13 08:22:56;;;;;;;7.80;2.58;;;26.70;27.20;;;;;;4973919;28;20038;-70
2023/06/13 08:25:22;;;;;;;5.50;2.53;;;26.80;26.90;;;;;;4974125;28;20042;-70
2023/06/13 08:27:48;;;;;;;2.85;2.35;;;26.90;27.30;;;;;;4973716;28;20041;-70
2023/06/13 08:30:14;;;;;;;3.42;2.25;;;27.20;27.40;;;;;;4973312;28;20049;-70
2023/06/13 08:32:41;;;;;;;4.47;2.80;;;27.30;27.40;;;;;;4974009;28;20414;-70
2023/06/13 08:35:07;;;;;;;6.20;3.10;;;27.40;27.10;;;;;;4973996;28;20117;-70
2023/06/13 08:37:34;;;;;;;7.15;3.00;;;27.20;26.70;;;;;;4973510;28;20526;-71
2023/06/13 08:40:00;;;;;;;3.95;2.72;;;27.10;26.60;;;;;;4973439;28;20047;-70
2023/06/13 08:42:26;;;;;;;4.88;2.83;;;27.20;26.70;;;;;;4973704;28;20070;-70
2023/06/13 08:44:52;;;;;;;5.47;2.40;;;27.00;26.40;;;;;;4973652;28;20419;-71
2023/06/13 08:47:18;;;;;;;10.07;3.47;;;27.30;26.80;;;;;;4973603;28;20092;-70
2023/06/13 08:49:48;;;;;;;3.40;3.00;;;27.10;26.40;;;;;;4973276;28;20030;-70
2023/06/13 08:52:17;;;;;;;8.23;3.55;;;27.20;26.50;;;;;;4973603;28;20052;-70
2023/06/13 08:54:43;;;;;;;6.30;2.90;;;27.50;26.90;;;;;;4973661;28;20043;-70
2023/06/13 08:57:14;;;;;;;4.00;2.63;;;27.60;26.30;;;;;;4972202;28;20042;-70
2023/06/13 08:59:44;;;;;;;6.72;3.33;;;27.90;26.10;;;;;;4973255;28;20049;-70
2023/06/13 09:02:14;;;;;;;5.78;2.95;;;27.90;25.70;;;;;;4973510;28;20049;-70
2023/06/13 09:04:41;;;;;;;4.45;3.03;;;27.70;25.00;;;;;;4973334;28;20553;-70
2023/06/13 09:07:06;;;;;;;4.03;2.67;;;27.30;25.00;;;;;;4973055;28;20039;-70
2023/06/13 09:09:34;;;;;;;4.35;2.60;;;27.50;25.40;;;;;;4972896;28;20140;-71
2023/06/13 09:12:02;;;;;;;4.50;3.10;;;27.40;24.90;;;;;;4973244;28;20051;-70
2023/06/13 09:14:28;;;;;;;6.80;3.05;;;27.30;24.70;;;;;;4973395;28;20043;-70
2023/06/13 09:16:54;;;;;;;4.80;3.17;;;27.30;24.50;;;;;;4972833;28;20046;-70
2023/06/13 09:19:20;;;;;;;7.15;3.15;;;27.60;25.60;;;;;;4972604;28;20407;-70
2023/06/13 09:21:46;;;;;;;6.20;3.38;;;27.60;25.20;;;;;;4972975;28;20050;-70
2023/06/13 09:24:12;;;;;;;4.00;2.65;;;27.70;25.20;;;;;;4972990;28;20043;-70
2023/06/13 09:26:43;;;;;;;3.38;2.70;;;27.60;25.20;;;;;;4971503;28;20086;-71
2023/06/13 09:29:08;;;;;;;4.68;2.97;;;27.50;24.10;;;;;;4972450;28;20042;-70
2023/06/13 09:31:38;;;;;;;3.88;2.53;;;27.50;24.40;;;;;;4971744;28;20422;-70
2023/06/13 09:34:06;;;;;;;3.97;2.22;;;27.10;23.80;;;;;;4972929;28;20093;-70
2023/06/13 09:36:35;;;;;;;5.78;3.08;;;26.80;24.10;;;;;;4972631;28;20057;-70
2023/06/13 09:39:03;;;;;;;7.18;2.78;;;27.00;23.70;;;;;;4972241;28;20070;-71
2023/06/13 09:41:31;;;;;;;5.10;2.90;;;26.90;23.30;;;;;;4972990;28;20039;-70
2023/06/13 09:44:00;;;;;;;9.65;2.58;;;27.00;23.80;;;;;;4972781;28;20521;-70
2023/06/13 09:46:27;;;;;;;4.53;2.90;;;26.90;24.10;;;;;;4972585;28;20177;-70
2023/06/13 09:48:53;;;;;;;6.18;2.47;;;26.80;23.60;;;;;;4972377;28;20053;-70
2023/06/13 09:51:21;;;;;;;3.53;2.83;;;26.80;23.70;;;;;;4972846;28;20121;-70
2023/06/13 09:53:49;;;;;;;6.65;2.42;;;26.80;24.30;;;;;;4972985;28;20109;-70
2023/06/13 09:56:15;;;;;;;6.38;3.08;;;26.90;24.70;;;;;;4972658;28;20047;-71
2023/06/13 09:58:41;;;;;;;3.85;2.67;;;26.90;24.30;;;;;;4971169;28;20454;-70
2023/06/13 10:01:14;;;;;;;4.82;2.75;;;26.70;23.60;;;;;;4971219;28;20047;-70
2023/06/13 10:03:41;;;;;;;7.90;2.83;;;26.60;23.40;;;;;;4971437;28;20126;-70
2023/06/13 10:06:07;;;;;;;4.30;2.42;;;26.70;24.10;;;;;;4972559;28;20047;-70
2023/06/13 10:08:34;;;;;;;6.45;2.67;;;27.10;25.00;;;;;;4974087;28;20407;-70
2023/06/13 10:11:18;;;;;;;2.65;2.22;;;26.90;25.50;;;;;;4976227;28;20042;-70
2023/06/13 10:13:59;;;;;;;3.25;2.50;;;26.90;25.10;;;;;;4976630;28;20086;-70
2023/06/13 10:16:26;;;;;;;8.52;2.63;;;27.00;24.70;;;;;;4976066;28;20047;-70
2023/06/13 10:18:57;;;;;;;5.63;2.20;;;26.80;24.40;;;;;;4976131;28;20117;-70
2023/06/13 10:21:23;;;;;;;5.43;2.20;;;26.90;24.40;;;;;;4976275;28;20475;-71
2023/06/13 10:23:50;;;;;;;6.75;2.67;;;26.60;25.00;;;;;;4976242;28;20035;-70
2023/06/13 10:26:33;;;;;;;5.00;2.45;;;26.50;24.70;;;;;;4976015;28;20043;-70
2023/06/13 10:29:45;;;;;;;5.20;2.40;;;26.40;24.10;;;;;;4975644;28;20034;-70
2023/06/13 10:32:28;;;;;;;3.72;2.38;;;26.50;24.60;;;;;;4976182;28;20069;-70
2023/06/13 10:35:03;;;;;;;;;;;26.60;24.80;;;;;;4976545;28;20043;-70
2023/06/13 10:37:57;;;;;;;4.97;2.50;;;26.10;24.30;;;;;;4975720;28;19925;-70
2023/06/13 10:40:53;;;;;;;5.85;3.10;;;26.10;24.50;;;;;;4975574;28;20546;-70
2023/06/13 10:43:48;;;;;;;6.13;2.97;;;26.20;25.50;;;;;;4975930;28;20043;-70
2023/06/13 10:46:15;;;;;;;3.88;2.22;;;26.20;25.10;;;;;;4975739;28;20068;-70
2023/06/13 10:48:49;;;;;;;3.72;2.60;;;26.20;24.80;;;;;;4975738;28;20043;-69
2023/06/13 10:51:29;;;;;;;5.28;2.67;;;26.20;24.80;;;;;;4975952;28;20142;-70
2023/06/13 10:54:12;;;;;;;4.25;2.40;;;26.30;25.10;;;;;;4974681;28;20042;-70
2023/06/13 10:56:41;;;;;;;5.13;2.45;;;26.10;25.70;;;;;;4975522;28;20031;-70
2023/06/13 10:59:07;;;;;;;8.15;2.55;;;26.10;25.90;;;;;;4974220;28;20035;-70
2023/06/13 11:01:35;;;;;;;3.60;2.25;;;26.20;26.50;;;;;;4975451;28;20419;-69
2023/06/13 11:04:27;;;;;;;3.50;2.55;;;26.20;26.90;;;;;;4974549;28;20566;-70
2023/06/13 11:06:52;;;;;;;5.55;2.35;;;26.10;27.00;;;;;;4974873;28;20078;-70
2023/06/13 11:09:24;;;;;;;3.20;2.30;;;26.10;27.00;;;;;;4975124;28;20070;-69
2023/06/13 11:11:55;;;;;;;6.38;2.53;;;26.10;27.00;;;;;;4975485;28;20065;-70
2023/06/13 11:14:25;;;;;;;4.35;2.60;;;26.30;26.90;;;;;;4975663;28;20495;-70
2023/06/13 11:16:52;;;;;;;4.88;2.25;;;26.30;27.20;;;;;;4974847;28;20102;-68
2023/06/13 11:19:39;;;;;;;5.10;2.67;;;26.40;27.40;;;;;;4974045;28;20566;-70
2023/06/13 11:22:05;;;;;;;4.80;2.17;;;26.40;27.20;;;;;;4973945;28;20043;-70
2023/06/13 11:24:35;;;;;;;9.27;2.50;;;26.40;27.30;;;;;;4975219;28;20043;-70
2023/06/13 11:27:03;;;;;;;4.93;2.20;;;26.30;26.80;;;;;;4974847;28;20042;-69
2023/06/13 11:29:30;;;;;;;5.57;2.90;;;26.30;26.90;;;;;;4974506;28;20043;-70
2023/06/13 11:31:56;;;;;;;3.55;2.58;;;26.30;26.50;;;;;;4975001;28;20498;-71
2023/06/13 11:34:28;;;;;;;4.70;2.33;;;26.10;25.90;;;;;;4973736;28;20094;-70
2023/06/13 11:37:00;;;;;;;4.97;2.78;;;26.20;25.90;;;;;;4973688;28;20507;-70
2023/06/13 11:39:41;;;;;;;4.95;2.30;;;26.10;26.20;;;;;;4973227;28;20123;-70
2023/06/13 11:42:08;;;;;;;8.77;2.80;;;26.10;26.90;;;;;;4974808;28;20125;-70
2023/06/13 11:44:35;;;;;;;4.93;2.92;;;26.10;26.40;;;;;;4973793;28;20082;-70
2023/06/13 11:47:00;;;;;;;3.70;2.33;;;26.10;25.80;;;;;;4973420;28;20483;-69
2023/06/13 11:49:26;;;;;;;3.90;2.03;;;26.00;26.10;;;;;;4974340;28;20081;-70
2023/06/13 11:51:52;;;;;;;6.75;3.40;;;26.20;26.70;;;;;;4974800;28;20038;-70
2023/06/13 11:54:17;;;;;;;7.85;2.83;;;26.10;25.40;;;;;;4974570;28;20043;-70
2023/06/13 11:56:53;;;;;;;4.45;2.67;;;26.00;25.10;;;;;;4974534;28;20459;-71
2023/06/13 11:59:20;;;;;;;6.70;2.42;;;26.00;25.10;;;;;;4974434;28;20090;-70
2023/06/13 12:01:52;;;;;;;3.95;2.25;;;25.90;25.40;;;;;;4974590;28;20039;-70
2023/06/13 12:04:18;;;;;;;4.05;2.53;;;26.00;25.80;;;;;;4974424;28;20096;-70
2023/06/13 12:06:44;;;;;;;5.25;2.00;;;26.00;26.40;;;;;;4974078;28;20031;-70
2023/06/13 12:09:10;;;;;;;3.33;2.28;;;26.00;26.80;;;;;;4973782;28;20570;-70
2023/06/13 12:11:36;;;;;;;3.47;2.28;;;25.80;26.80;;;;;;4982103;28;20129;-70
2023/06/13 12:14:02;;;;;;;2.92;2.10;;;25.80;26.80;;;;;;4992209;28;20066;-69
2023/06/13 12:16:31;;;;;;;3.08;2.30;;;25.80;26.60;;;;;;4992236;28;20459;-69
2023/06/13 12:18:57;;;;;;;4.72;2.50;;;25.80;26.00;;;;;;4981689;28;20047;-70
2023/06/13 12:21:31;;;;;;;8.38;2.20;;;25.90;26.70;;;;;;4974058;28;20134;-70
2023/06/13 12:23:59;;;;;;;3.42;2.42;;;25.90;26.90;;;;;;4974345;28;20043;-69
2023/06/13 12:26:31;;;;;;;4.75;2.60;;;25.80;27.00;;;;;;4973818;28;20043;-72
2023/06/13 12:28:59;;;;;;;4.03;2.37;;;25.90;26.70;;;;;;4972372;28;20126;-70
2023/06/13 12:31:58;;;;;;;4.22;2.22;;;25.80;26.60;;;;;;4972627;28;20410;-69
2023/06/13 12:34:28;;;;;;;4.97;2.20;;;25.80;26.40;;;;;;4973734;28;20443;-71
2023/06/13 12:36:59;;;;;;;3.53;2.25;;;25.80;26.60;;;;;;4973868;28;20108;-72
2023/06/13 12:39:25;;;;;;;5.07;2.33;;;25.90;26.70;;;;;;4973352;28;20049;-70
2023/06/13 12:41:52;;;;;;;4.88;2.95;;;25.70;26.40;;;;;;4973823;28;20035;-70
2023/06/13 12:44:20;;;;;;;4.75;2.30;;;25.80;26.50;;;;;;4973649;28;20411;-70
2023/06/13 12:46:49;;;;;;;4.70;2.15;;;25.80;27.00;;;;;;4973262;28;20035;-69
2023/06/13 12:49:18;;;;;;;4.45;2.40;;;25.90;27.30;;;;;;4973305;28;20150;-69
2023/06/13 12:51:49;;;;;;;3.90;2.20;;;25.90;27.40;;;;;;4972336;28;20053;-70